Time;durP1;ratioP1;P1;durP2;ratioP2;P2;SDS_P1;SDS_P2;PMS_P1;PMS_P2;Temp;Humidity;BMP_temperature;BMP_pressure;BME280_temperature;BME280_humidity;BME280_pressure;Samples;Min_cycle;Max_cycle;Signal;HPM_P1;HPM_P2
2022/09/28 00:09:44;;;;;;;67.40;31.80;;;;;;;14.16;100.00;98527.19;657643;1277;140442;-89
2022/09/28 00:24:47;;;;;;;191.40;85.10;;;;;;;14.06;100.00;98523.36;657538;1277;141192;-88
2022/09/28 00:39:50;;;;;;;132.60;70.10;;;;;;;13.88;100.00;98509.66;657493;1277;139625;-87
2022/09/28 00:54:56;;;;;;;33.20;18.40;;;;;;;13.82;100.00;98495.27;656569;1277;141096;-87
2022/09/28 01:10:00;;;;;;;62.90;28.50;;;;;;;13.52;100.00;98497.38;657165;1277;140042;-88
2022/09/28 01:25:20;;;;;;;41.40;18.00;;;;;;;13.35;100.00;98490.58;658419;1277;141530;-87
2022/09/28 01:40:27;;;;;;;34.60;16.10;;;;;;;13.24;100.00;98479.21;658351;1277;140822;-88
2022/09/28 01:55:36;;;;;;;19.40;10.50;;;;;;;13.17;100.00;98469.91;658443;1277;140459;-86
2022/09/28 02:11:01;;;;;;;21.40;14.90;;;;;;;13.08;100.00;98468.66;658428;1277;140502;-86
2022/09/28 02:26:09;;;;;;;8.80;5.30;;;;;;;13.08;100.00;98473.80;658741;1277;140349;-88
2022/09/28 02:41:38;;;;;;;15.80;8.20;;;;;;;13.00;100.00;98485.09;658190;1277;139990;-87
2022/09/28 02:56:51;;;;;;;11.80;5.70;;;;;;;12.97;100.00;98474.71;659151;1277;140917;-86
2022/09/28 03:12:02;;;;;;;27.00;11.00;;;;;;;12.86;100.00;98460.48;657932;1277;139728;-89
2022/09/28 03:38:54;;;;;;;7.00;4.20;;;;;;;12.99;100.00;98447.48;640312;1306;983678;-88
2022/09/28 03:53:58;;;;;;;18.40;9.80;;;;;;;13.01;100.00;98445.22;658659;1274;139970;-87
2022/09/28 04:09:02;;;;;;;14.00;6.40;;;;;;;13.06;100.00;98444.80;659016;1274;139263;-90
2022/09/28 04:24:05;;;;;;;8.60;4.90;;;;;;;12.95;100.00;98436.85;658944;1274;140232;-89
2022/09/28 04:39:10;;;;;;;15.80;8.50;;;;;;;12.87;100.00;98440.34;662117;1275;140013;-89
2022/09/28 05:14:41;;;;;;;22.90;15.20;;;;;;;12.35;100.00;98438.73;638635;1313;1032078;-88
2022/09/28 05:29:45;;;;;;;28.60;17.30;;;;;;;12.27;100.00;98441.88;654170;1285;139801;-89
2022/09/28 05:45:09;;;;;;;31.60;17.80;;;;;;;12.23;100.00;98446.77;654473;1286;139959;-90
2022/09/28 06:00:15;;;;;;;35.50;22.10;;;;;;;12.17;100.00;98447.83;653379;1286;139692;-91
2022/09/28 06:15:25;;;;;;;28.90;16.90;;;;;;;12.29;100.00;98451.43;652463;1285;139034;-90
2022/09/28 06:30:33;;;;;;;36.20;18.90;;;;;;;12.36;100.00;98449.38;652143;1286;139688;-92
2022/09/28 06:45:38;;;;;;;39.30;20.70;;;;;;;12.36;100.00;98445.66;651641;1287;140929;-89
2022/09/28 07:01:17;;;;;;;32.00;18.60;;;;;;;12.35;100.00;98446.54;651958;1286;139160;-90
2022/09/28 07:16:30;;;;;;;28.70;18.70;;;;;;;12.36;100.00;98450.38;656269;1286;139162;-92
2022/09/28 07:31:54;;;;;;;23.70;14.90;;;;;;;12.33;100.00;98469.17;658793;1286;142700;-88
2022/09/28 07:47:17;;;;;;;20.70;13.90;;;;;;;12.49;100.00;98475.93;656486;1286;141059;-88
2022/09/28 08:02:39;;;;;;;17.00;11.40;;;;;;;13.73;100.00;98466.76;655231;1287;139588;-89
2022/09/28 08:17:46;;;;;;;21.80;13.70;;;;;;;13.77;100.00;98476.69;652873;1286;139575;-88
2022/09/28 08:32:50;;;;;;;13.20;8.90;;;;;;;13.78;100.00;98470.20;653142;1287;139847;-88
2022/09/28 08:48:44;;;;;;;11.50;7.70;;;;;;;14.00;100.00;98474.93;652053;1287;142171;-88
2022/09/28 09:04:24;;;;;;;8.80;6.80;;;;;;;14.39;100.00;98488.95;653336;1287;139826;-88
2022/09/28 09:19:53;;;;;;;6.70;4.60;;;;;;;14.62;99.59;98493.80;654312;1287;139285;-87
2022/09/28 09:35:44;;;;;;;6.10;5.30;;;;;;;14.34;99.10;98505.65;652617;1287;138546;-86
2022/09/28 09:51:38;;;;;;;5.60;4.70;;;;;;;15.25;94.21;98511.16;652738;1286;138867;-86
2022/09/28 10:06:42;;;;;;;;;;;;;;;15.66;83.99;98526.15;652754;1286;138909;-88
2022/09/28 10:21:51;;;;;;;11.30;7.70;;;;;;;16.01;79.28;98537.25;652657;1286;125148;-85
2022/09/28 10:37:10;;;;;;;14.90;9.10;;;;;;;14.87;80.39;98552.60;653545;1287;139282;-85
2022/09/28 10:52:39;;;;;;;6.50;4.30;;;;;;;14.67;80.75;98566.68;652502;1287;138633;-87
2022/09/28 11:07:46;;;;;;;4.40;3.40;;;;;;;15.57;79.18;98566.65;657425;1280;138993;-87
2022/09/28 11:22:54;;;;;;;6.70;4.40;;;;;;;15.37;78.28;98560.38;657585;1279;138635;-87
2022/09/28 11:38:04;;;;;;;10.40;5.20;;;;;;;15.87;77.49;98548.09;657394;1280;138763;-85
2022/09/28 11:53:36;;;;;;;8.20;5.30;;;;;;;17.20;70.24;98543.89;658613;1280;138212;-87
2022/09/28 12:08:44;;;;;;;9.90;5.00;;;;;;;16.68;71.62;98552.67;661698;1280;138375;-88
2022/09/28 12:24:31;;;;;;;10.40;5.70;;;;;;;17.22;70.64;98561.52;660041;1280;138404;-86
2022/09/28 12:40:21;;;;;;;8.60;5.10;;;;;;;17.93;66.46;98561.39;659902;1280;138646;-87
2022/09/28 12:55:49;;;;;;;7.60;5.30;;;;;;;18.16;63.63;98560.09;659940;1281;138204;-86
2022/09/28 13:11:14;;;;;;;4.60;3.40;;;;;;;18.87;61.47;98560.71;659511;1280;138527;-88
2022/09/28 13:26:28;;;;;;;6.00;3.30;;;;;;;17.82;58.63;98561.98;657010;1278;138026;-86
2022/09/28 13:41:37;;;;;;;7.80;4.90;;;;;;;17.49;62.04;98554.98;657829;1278;137885;-85
2022/09/28 13:57:12;;;;;;;8.00;4.20;;;;;;;17.74;62.32;98548.37;658023;1280;137923;-85
2022/09/28 14:12:43;;;;;;;8.20;4.40;;;;;;;27.62;47.89;98544.98;658412;1278;138614;-86
2022/09/28 14:28:05;;;;;;;7.00;5.00;;;;;;;26.48;44.83;98552.73;659846;1278;138505;-87
2022/09/28 14:43:43;;;;;;;8.10;4.50;;;;;;;20.10;52.39;98551.67;657116;1280;137724;-87
2022/09/28 14:58:52;;;;;;;34.70;18.30;;;;;;;19.84;56.94;98557.48;657568;1278;139064;-87
2022/09/28 15:14:07;;;;;;;240.20;93.70;;;;;;;22.06;55.55;98557.08;656864;1278;138344;-86
2022/09/28 15:29:17;;;;;;;17.60;9.90;;;;;;;20.10;55.94;98559.02;657476;1277;139059;-85
2022/09/28 15:44:28;;;;;;;19.10;12.10;;;;;;;17.78;59.90;98559.94;656929;1278;138086;-86
2022/09/28 15:59:38;;;;;;;11.80;5.80;;;;;;;16.60;63.16;98567.09;657049;1279;138868;-85
2022/09/28 16:35:49;;;;;;;93.10;78.30;;;;;;;15.42;69.10;98580.36;643633;1306;1064873;-85
2022/09/28 16:50:55;;;;;;;124.20;82.00;;;;;;;15.04;71.32;98582.20;652413;1287;138329;-84
2022/09/28 17:06:04;;;;;;;26.40;16.90;;;;;;;14.67;73.90;98583.70;653223;1287;139708;-86
2022/09/28 17:21:17;;;;;;;24.00;15.70;;;;;;;14.25;75.66;98557.66;653365;1287;139414;-85
2022/09/28 17:36:22;;;;;;;107.20;43.40;;;;;;;13.93;77.84;98553.48;653143;1286;139031;-85
2022/09/28 17:51:33;;;;;;;22.20;12.70;;;;;;;13.75;80.00;98561.04;653810;1287;140126;-87
2022/09/28 18:06:41;;;;;;;26.50;16.10;;;;;;;13.54;82.17;98562.98;654011;1287;140418;-85
2022/09/28 18:21:44;;;;;;;20.40;13.80;;;;;;;13.48;83.42;98567.84;656174;1284;140106;-86
2022/09/28 18:36:48;;;;;;;15.90;11.50;;;;;;;13.24;86.74;98575.98;657913;1283;139939;-86
2022/09/28 18:51:51;;;;;;;40.10;14.60;;;;;;;12.88;90.15;98573.70;662228;1275;138936;-86
2022/09/28 19:06:54;;;;;;;18.00;9.60;;;;;;;12.54;90.34;98569.76;661619;1277;139400;-88
2022/09/28 19:21:59;;;;;;;23.70;13.50;;;;;;;12.16;93.40;98603.06;662251;1275;138632;-92
2022/09/28 19:37:03;;;;;;;21.80;11.10;;;;;;;12.00;93.70;98609.52;665472;1277;139320;-89
2022/09/28 19:52:14;;;;;;;19.60;9.30;;;;;;;11.86;94.58;98611.18;658368;1276;143154;-86
2022/09/28 20:07:19;;;;;;;36.30;13.10;;;;;;;11.76;97.31;98602.19;657654;1277;140016;-91
2022/09/28 20:22:22;;;;;;;12.50;7.60;;;;;;;11.69;99.48;98621.13;658457;1277;139506;-90
2022/09/28 20:37:26;;;;;;;9.60;7.60;;;;;;;11.98;100.00;98626.08;658379;1277;140247;-89
2022/09/28 20:52:29;;;;;;;24.80;12.80;;;;;;;12.08;100.00;98623.64;659234;1276;139857;-90
2022/09/28 21:07:33;;;;;;;16.50;10.00;;;;;;;11.99;100.00;98629.95;659011;1276;139198;-92
2022/09/28 21:22:36;;;;;;;9.60;5.90;;;;;;;11.81;100.00;98635.02;657507;1277;139244;-89
2022/09/28 21:37:39;;;;;;;9.40;6.10;;;;;;;11.90;100.00;98632.27;657678;1276;142343;-88
2022/09/28 21:52:42;;;;;;;11.70;6.40;;;;;;;11.94;100.00;98629.89;657711;1276;138624;-88
2022/09/28 22:07:45;;;;;;;19.20;9.90;;;;;;;11.91;100.00;98636.31;657494;1276;139074;-88
2022/09/28 22:22:49;;;;;;;9.30;6.10;;;;;;;11.77;100.00;98636.30;658655;1276;139090;-88
2022/09/28 22:37:52;;;;;;;8.50;5.10;;;;;;;11.55;100.00;98631.10;658993;1276;138625;-89
2022/09/28 22:52:56;;;;;;;13.20;7.80;;;;;;;11.24;100.00;98629.14;658559;1275;138941;-88
2022/09/28 23:07:59;;;;;;;6.30;4.50;;;;;;;10.93;100.00;98637.27;658476;1276;139805;-90
2022/09/28 23:23:02;;;;;;;15.20;9.10;;;;;;;10.88;100.00;98647.16;658817;1275;139456;-88
2022/09/28 23:38:06;;;;;;;13.10;8.50;;;;;;;11.00;100.00;98658.05;657972;1276;138800;-88
2022/09/28 23:53:12;;;;;;;15.70;9.30;;;;;;;10.93;100.00;98664.23;657466;1277;140152;-88
